Time;durP1;ratioP1;P1;durP2;ratioP2;P2;SDS_P1;SDS_P2;PMS_P1;PMS_P2;Temp;Humidity;BMP_temperature;BMP_pressure;BME280_temperature;BME280_humidity;BME280_pressure;Samples;Min_cycle;Max_cycle;Signal;HPM_P1;HPM_P2
2022/01/22 00:01:04;;;;;;;;;;;0.10;75.90;;;;;;5023017;28;89168;-42
2022/01/22 00:03:30;;;;;;;;;;;0.10;76.10;;;;;;5022990;28;88020;-41
2022/01/22 00:05:56;;;;;;;;;;;0.10;76.00;;;;;;5022499;28;89885;-42
2022/01/22 00:08:21;;;;;;;;;;;0.10;76.10;;;;;;5022856;28;89217;-42
2022/01/22 00:10:50;;;;;;;;;;;0.10;76.00;;;;;;5023239;28;87124;-42
2022/01/22 00:15:44;;;;;;;;;;;0.00;76.00;;;;;;5023209;28;87978;-42
2022/01/22 00:18:10;;;;;;;;;;;0.10;76.10;;;;;;5024987;28;87026;-42
2022/01/22 00:20:36;;;;;;;;;;;0.00;76.40;;;;;;5023561;28;88482;-42
2022/01/22 00:23:03;;;;;;;;;;;0.10;76.20;;;;;;5023495;28;87122;-42
2022/01/22 00:25:28;;;;;;;;;;;0.00;76.20;;;;;;5023100;28;88434;-42
2022/01/22 00:27:54;;;;;;;;;;;0.00;76.20;;;;;;5021871;28;90696;-42
2022/01/22 00:30:21;;;;;;;;;;;0.00;76.00;;;;;;5023036;28;87307;-42
2022/01/22 00:32:47;;;;;;;;;;;0.00;76.00;;;;;;5023065;28;91295;-42
2022/01/22 00:35:13;;;;;;;;;;;-0.10;76.20;;;;;;5022675;28;89658;-42
2022/01/22 00:37:40;;;;;;;;;;;-0.10;76.30;;;;;;5023268;28;87183;-42
2022/01/22 00:40:06;;;;;;;;;;;-0.10;76.50;;;;;;5025354;28;88786;-42
2022/01/22 00:42:33;;;;;;;;;;;-0.10;76.30;;;;;;5022604;28;87108;-42
2022/01/22 00:44:59;;;;;;;;;;;-0.10;76.20;;;;;;5023480;28;88821;-42
2022/01/22 00:47:25;;;;;;;;;;;0.00;76.20;;;;;;5022452;28;89762;-42
2022/01/22 00:49:50;;;;;;;;;;;-0.10;76.20;;;;;;5022817;28;87127;-42
2022/01/22 00:52:16;;;;;;;;;;;-0.10;76.10;;;;;;5022244;28;88780;-42
2022/01/22 00:54:41;;;;;;;;;;;-0.10;76.40;;;;;;5022399;28;89230;-42
2022/01/22 00:57:07;;;;;;;;;;;-0.10;76.40;;;;;;5023048;28;87086;-42
2022/01/22 00:59:32;;;;;;;;;;;-0.10;76.30;;;;;;5022869;28;88877;-42
2022/01/22 01:01:58;;;;;;;;;;;-0.10;76.40;;;;;;5025127;28;89188;-42
2022/01/22 01:04:24;;;;;;;;;;;-0.10;76.10;;;;;;5022729;28;89033;-42
2022/01/22 01:06:49;;;;;;;;;;;-0.10;76.20;;;;;;5022448;28;87965;-42
2022/01/22 01:09:16;;;;;;;;;;;-0.10;76.10;;;;;;5023179;28;86288;-42
2022/01/22 01:11:47;;;;;;;;;;;-0.20;76.20;;;;;;5022590;28;88295;-41
2022/01/22 01:14:19;;;;;;;;;;;-0.20;76.30;;;;;;5022390;28;89745;-42
2022/01/22 01:17:08;;;;;;;;;;;-0.20;76.20;;;;;;5023356;28;87866;-42
2022/01/22 01:33:25;;;;;;;;;;;-0.20;76.30;;;;;;5026215;28;87242;-42
2022/01/22 01:35:51;;;;;;;;;;;-0.20;76.40;;;;;;5025871;28;88619;-41
2022/01/22 01:38:20;;;;;;;;;;;-0.20;76.30;;;;;;5025742;28;87275;-41
2022/01/22 01:40:54;;;;;;;;;;;-0.30;76.30;;;;;;5025056;28;89049;-42
2022/01/22 01:43:28;;;;;;;;;;;-0.20;76.30;;;;;;5024218;28;90221;-42
2022/01/22 01:45:54;;;;;;;;;;;-0.30;76.20;;;;;;5025597;28;87037;-42
2022/01/22 01:48:24;;;;;;;;;;;-0.30;76.40;;;;;;5028117;28;88715;-42
2022/01/22 01:50:50;;;;;;;;;;;-0.30;76.40;;;;;;5025533;28;86914;-42
2022/01/22 01:53:30;;;;;;;;;;;-0.30;76.30;;;;;;5025293;28;88676;-42
2022/01/22 01:58:22;;;;;;;;;;;-0.30;76.40;;;;;;5025465;28;86958;-42
2022/01/22 02:00:48;;;;;;;;;;;-0.30;76.50;;;;;;5025682;28;87965;-42
2022/01/22 02:03:14;;;;;;;;;;;-0.40;76.20;;;;;;5024923;28;89505;-42
2022/01/22 02:05:39;;;;;;;;;;;-0.30;76.40;;;;;;5025344;28;87137;-42
2022/01/22 02:08:05;;;;;;;;;;;-0.40;76.30;;;;;;5024298;28;88844;-42
2022/01/22 02:10:34;;;;;;;;;;;-0.40;76.40;;;;;;5027883;28;88104;-42
2022/01/22 02:24:00;;;;;;;;;;;-0.40;76.40;;;;;;5024966;28;86852;-42
2022/01/22 02:26:27;;;;;;;;;;;-0.50;76.30;;;;;;5025235;28;86406;-42
2022/01/22 02:28:53;;;;;;;;;;;-0.40;76.40;;;;;;5024075;28;88395;-42
2022/01/22 02:36:38;;;;;;;;;;;-0.50;76.40;;;;;;5023380;28;87325;-42
2022/01/22 02:41:34;;;;;;;;;;;-0.50;76.50;;;;;;5024140;28;87761;-42
2022/01/22 02:44:00;;;;;;;;;;;-0.50;76.50;;;;;;5024441;28;89620;-42
2022/01/22 02:46:27;;;;;;;;;;;-0.50;76.40;;;;;;5024372;28;87118;-42
2022/01/22 02:48:56;;;;;;;;;;;-0.50;76.40;;;;;;5024739;28;88986;-42
2022/01/22 02:51:22;;;;;;;;;;;-0.50;76.50;;;;;;5024534;28;89103;-42
2022/01/22 02:53:54;;;;;;;;;;;-0.50;76.40;;;;;;5027675;28;87084;-42
2022/01/22 02:56:21;;;;;;;;;;;-0.50;76.20;;;;;;5024410;28;89529;-42
2022/01/22 02:58:46;;;;;;;;;;;-0.50;76.40;;;;;;5024207;28;88047;-42
2022/01/22 03:01:15;;;;;;;;;;;-0.60;76.40;;;;;;5024264;28;89441;-42
2022/01/22 03:03:41;;;;;;;;;;;-0.50;76.40;;;;;;5024082;28;89605;-42
2022/01/22 03:06:06;;;;;;;;;;;-0.60;76.50;;;;;;5024128;28;87058;-42
2022/01/22 03:08:33;;;;;;;;;;;-0.70;76.70;;;;;;5024261;28;87813;-42
2022/01/22 03:11:00;;;;;;;;;;;-0.60;76.50;;;;;;5024156;28;89682;-42
2022/01/22 03:16:45;;;;;;;;;;;-0.60;76.40;;;;;;5026045;28;87310;-42
2022/01/22 03:19:18;;;;;;;;;;;-0.60;76.40;;;;;;5024156;28;87027;-42
2022/01/22 03:21:58;;;;;;;;;;;-0.70;76.30;;;;;;5024408;28;88858;-42
2022/01/22 03:27:23;;;;;;;;;;;-0.70;76.40;;;;;;5023625;28;86908;-42
2022/01/22 03:29:50;;;;;;;;;;;-0.60;76.20;;;;;;5024144;28;88877;-42
2022/01/22 03:32:16;;;;;;;;;;;-0.70;76.40;;;;;;5023442;28;89268;-42
2022/01/22 03:34:54;;;;;;;;;;;-0.70;76.30;;;;;;5023748;28;87038;-42
2022/01/22 03:37:19;;;;;;;;;;;-0.70;76.40;;;;;;5023788;28;88844;-42
2022/01/22 03:39:45;;;;;;;;;;;-0.70;76.40;;;;;;5025384;28;88094;-42
2022/01/22 03:42:10;;;;;;;;;;;-0.70;76.50;;;;;;5023691;28;89500;-42
2022/01/22 03:44:36;;;;;;;;;;;-0.70;76.30;;;;;;5023412;28;89872;-42
2022/01/22 03:47:02;;;;;;;;;;;-0.70;76.20;;;;;;5023773;28;87228;-42
2022/01/22 03:49:27;;;;;;;;;;;-0.80;76.30;;;;;;5023225;28;88692;-42
2022/01/22 03:51:53;;;;;;;;;;;-0.70;76.30;;;;;;5023307;28;89483;-42
2022/01/22 03:54:19;;;;;;;;;;;-0.80;76.30;;;;;;5023703;28;87156;-42
2022/01/22 03:56:46;;;;;;;;;;;-0.80;76.20;;;;;;5023311;28;88849;-42
2022/01/22 03:59:12;;;;;;;;;;;-0.80;76.20;;;;;;5023433;28;89449;-42
2022/01/22 04:04:14;;;;;;;;;;;-0.80;76.20;;;;;;5021939;28;88000;-42
2022/01/22 04:07:20;;;;;;;;;;;-0.80;76.20;;;;;;5023753;28;86359;-42
2022/01/22 04:09:39;;;;;;;;;;;-0.80;76.30;;;;;;5022848;28;87024;-42
2022/01/22 04:12:05;;;;;;;;;;;-0.90;76.30;;;;;;5023222;28;87990;-42
2022/01/22 04:14:34;;;;;;;;;;;-0.90;76.40;;;;;;5022785;28;88165;-42
2022/01/22 04:17:21;;;;;;;;;;;-0.90;76.40;;;;;;5023241;28;89592;-42
2022/01/22 04:25:20;;;;;;;;;;;-0.90;76.30;;;;;;5025058;28;86840;-42
2022/01/22 04:27:48;;;;;;;;;;;-0.90;76.30;;;;;;5023318;28;86768;-42
2022/01/22 04:30:13;;;;;;;;;;;-0.90;76.30;;;;;;5023121;28;87301;-42
2022/01/22 04:32:39;;;;;;;;;;;-0.90;76.30;;;;;;5023382;28;87356;-42
2022/01/22 04:35:04;;;;;;;;;;;-0.90;76.30;;;;;;5022895;28;86777;-42
2022/01/22 04:37:30;;;;;;;;;;;-0.90;76.40;;;;;;5023129;28;88227;-42
2022/01/22 04:39:56;;;;;;;;;;;-0.90;76.30;;;;;;5022211;28;88995;-42
2022/01/22 04:42:23;;;;;;;;;;;-0.90;76.20;;;;;;5022714;28;87156;-42
2022/01/22 04:48:13;;;;;;;;;;;-1.00;76.40;;;;;;5020468;28;86915;-42
2022/01/22 04:55:34;;;;;;;;;;;-1.00;76.40;;;;;;5023862;28;86931;-42
2022/01/22 04:58:03;;;;;;;;;;;-1.00;76.50;;;;;;5026616;28;88974;-42
2022/01/22 05:00:29;;;;;;;;;;;-1.00;76.40;;;;;;5025869;28;89283;-42
2022/01/22 05:02:54;;;;;;;;;;;-1.10;76.40;;;;;;5026323;28;87109;-42
2022/01/22 05:05:20;;;;;;;;;;;-1.00;76.60;;;;;;5025668;28;89183;-42
2022/01/22 05:07:46;;;;;;;;;;;-1.10;76.50;;;;;;5028577;28;88427;-42
2022/01/22 05:10:11;;;;;;;;;;;-1.10;76.30;;;;;;5026117;28;88591;-42
2022/01/22 05:12:37;;;;;;;;;;;-1.10;76.60;;;;;;5025895;28;88712;-42
2022/01/22 05:15:03;;;;;;;;;;;-1.10;76.50;;;;;;5026415;28;87275;-42
2022/01/22 05:17:31;;;;;;;;;;;-1.10;76.30;;;;;;5026060;28;88913;-42
2022/01/22 05:20:11;;;;;;;;;;;-1.10;76.60;;;;;;5025632;28;89480;-42
2022/01/22 05:25:26;;;;;;;;;;;-1.10;76.60;;;;;;5024594;28;87123;-42
2022/01/22 05:38:32;;;;;;;;;;;-1.20;76.70;;;;;;5025052;28;87056;-43
2022/01/22 05:40:58;;;;;;;;;;;-1.20;76.60;;;;;;5024545;28;89829;-43
2022/01/22 05:43:23;;;;;;;;;;;-1.20;76.60;;;;;;5025184;28;87135;-43
2022/01/22 05:45:49;;;;;;;;;;;-1.20;76.60;;;;;;5025800;28;87901;-43
2022/01/22 05:48:14;;;;;;;;;;;-1.20;76.60;;;;;;5025430;28;88827;-43
2022/01/22 05:50:53;;;;;;;;;;;-1.20;76.50;;;;;;5025762;28;87178;-43
2022/01/22 06:01:09;;;;;;;;;;;-1.30;76.60;;;;;;5023851;28;87248;-43
2022/01/22 06:03:35;;;;;;;;;;;-1.30;76.60;;;;;;5024146;28;87168;-43
2022/01/22 06:06:00;;;;;;;;;;;-1.30;76.60;;;;;;5025265;28;89036;-43
2022/01/22 06:08:31;;;;;;;;;;;-1.30;76.50;;;;;;5024671;28;89382;-43
2022/01/22 06:10:59;;;;;;;;;;;-1.30;76.50;;;;;;5025541;28;87050;-43
2022/01/22 06:13:33;;;;;;;;;;;-1.30;76.40;;;;;;5025701;28;88958;-43
2022/01/22 06:15:59;;;;;;;;;;;-1.30;76.50;;;;;;5027743;28;89319;-43
2022/01/22 06:18:24;;;;;;;;;;;-1.30;76.60;;;;;;5024957;28;89111;-43
2022/01/22 06:20:50;;;;;;;;;;;-1.40;76.50;;;;;;5023883;28;90649;-43
2022/01/22 06:23:15;;;;;;;;;;;-1.40;76.60;;;;;;5024827;28;87178;-43
2022/01/22 06:25:41;;;;;;;;;;;-1.40;76.80;;;;;;5024944;28;88927;-43
2022/01/22 06:28:06;;;;;;;;;;;-1.40;76.70;;;;;;5024393;28;89670;-43
2022/01/22 06:30:32;;;;;;;;;;;-1.40;76.80;;;;;;5024902;28;86997;-43
2022/01/22 06:32:58;;;;;;;;;;;-1.40;76.70;;;;;;5024839;28;88704;-43
2022/01/22 06:35:23;;;;;;;;;;;-1.40;76.80;;;;;;5024425;28;89248;-43
2022/01/22 06:37:49;;;;;;;;;;;-1.50;76.90;;;;;;5027908;28;86312;-43
2022/01/22 06:42:43;;;;;;;;;;;-1.50;77.00;;;;;;5024275;28;87092;-43
2022/01/22 06:45:08;;;;;;;;;;;-1.50;76.90;;;;;;5024179;28;89201;-43
2022/01/22 06:47:35;;;;;;;;;;;-1.40;76.90;;;;;;5024504;28;87823;-43
2022/01/22 06:50:00;;;;;;;;;;;-1.50;76.90;;;;;;5024622;28;87122;-43
2022/01/22 06:52:26;;;;;;;;;;;-1.40;76.80;;;;;;5024451;28;88909;-43
2022/01/22 06:54:52;;;;;;;;;;;-1.50;76.80;;;;;;5024172;28;89517;-42
2022/01/22 06:57:18;;;;;;;;;;;-1.50;76.90;;;;;;5027305;28;88058;-42
2022/01/22 06:59:43;;;;;;;;;;;-1.50;76.80;;;;;;5024219;28;89368;-43
2022/01/22 07:02:09;;;;;;;;;;;-1.50;76.80;;;;;;5024750;28;86388;-43
2022/01/22 07:04:37;;;;;;;;;;;-1.50;76.70;;;;;;5024473;28;88214;-43
2022/01/22 07:07:12;;;;;;;;;;;-1.40;76.70;;;;;;5023807;28;89672;-43
2022/01/22 07:09:38;;;;;;;;;;;-1.50;76.80;;;;;;5024017;28;87813;-43
2022/01/22 07:12:04;;;;;;;;;;;-1.50;76.80;;;;;;5024366;28;90287;-43
2022/01/22 07:14:30;;;;;;;;;;;-1.50;76.90;;;;;;5023451;28;89707;-43
2022/01/22 07:16:55;;;;;;;;;;;-1.50;76.80;;;;;;5024138;28;87095;-42
2022/01/22 07:19:21;;;;;;;;;;;-1.50;76.80;;;;;;5026644;28;89012;-42
2022/01/22 07:21:56;;;;;;;;;;;-1.50;76.70;;;;;;5024046;28;87130;-43
2022/01/22 07:24:26;;;;;;;;;;;-1.50;77.30;;;;;;5024169;28;89029;-43
2022/01/22 07:26:52;;;;;;;;;;;-1.50;76.90;;;;;;5024239;28;90213;-43
2022/01/22 07:29:18;;;;;;;;;;;-1.50;76.80;;;;;;5024097;28;87336;-42
2022/01/22 07:31:43;;;;;;;;;;;-1.60;77.00;;;;;;5023771;28;88867;-42
2022/01/22 07:34:09;;;;;;;;;;;-1.60;77.00;;;;;;5022936;28;88984;-42
2022/01/22 07:36:34;;;;;;;;;;;-1.60;76.80;;;;;;5024079;28;87126;-42
2022/01/22 07:39:00;;;;;;;;;;;-1.50;76.90;;;;;;5023999;28;88726;-42
2022/01/22 07:41:25;;;;;;;;;;;-1.50;77.00;;;;;;5025976;28;90173;-42
2022/01/22 07:43:51;;;;;;;;;;;-1.50;76.80;;;;;;5023703;28;88902;-42
2022/01/22 07:46:16;;;;;;;;;;;-1.60;76.90;;;;;;5023367;28;89840;-42
2022/01/22 07:48:42;;;;;;;;;;;-1.50;76.90;;;;;;5023463;28;87108;-42
2022/01/22 07:51:07;;;;;;;;;;;-1.60;77.10;;;;;;5024276;28;87437;-42
2022/01/22 07:53:33;;;;;;;;;;;-1.60;77.10;;;;;;5023523;28;89562;-42
2022/01/22 07:55:59;;;;;;;;;;;-1.60;77.10;;;;;;5023677;28;87053;-42
2022/01/22 07:58:24;;;;;;;;;;;-1.70;77.40;;;;;;5022949;28;88541;-42
2022/01/22 08:00:50;;;;;;;;;;;-1.70;77.50;;;;;;5023082;28;89597;-42
2022/01/22 08:03:15;;;;;;;;;;;-1.70;77.70;;;;;;5026248;28;87090;-42
2022/01/22 08:05:41;;;;;;;;;;;-1.70;77.40;;;;;;5023297;28;89716;-42
2022/01/22 08:08:06;;;;;;;;;;;-1.70;77.70;;;;;;5023395;28;87156;-42
2022/01/22 08:10:32;;;;;;;;;;;-1.70;77.70;;;;;;5023682;28;89070;-42
2022/01/22 08:12:57;;;;;;;;;;;-1.80;77.70;;;;;;5022959;28;89424;-42
2022/01/22 08:15:23;;;;;;;;;;;-1.70;77.90;;;;;;5023833;28;86414;-42
2022/01/22 08:17:49;;;;;;;;;;;-1.70;77.90;;;;;;5023246;28;87310;-42
2022/01/22 08:20:16;;;;;;;;;;;-1.70;77.60;;;;;;5022680;28;89270;-42
2022/01/22 08:22:45;;;;;;;;;;;-1.70;77.70;;;;;;5022662;28;87920;-42
2022/01/22 08:25:11;;;;;;;;;;;-1.70;77.70;;;;;;5025950;28;89760;-42
2022/01/22 08:30:21;;;;;;;;;;;-1.80;77.70;;;;;;5027068;28;86852;-42
2022/01/22 08:38:15;;;;;;;;;;;-1.80;77.90;;;;;;5026979;28;86963;-42
2022/01/22 08:40:41;;;;;;;;;;;-1.80;78.10;;;;;;5026373;28;88888;-42
2022/01/22 08:43:06;;;;;;;;;;;-1.80;78.20;;;;;;5026265;28;86888;-43
2022/01/22 08:45:32;;;;;;;;;;;-1.80;78.10;;;;;;5029393;28;88868;-43
2022/01/22 08:47:57;;;;;;;;;;;-1.90;78.40;;;;;;5025960;28;88086;-43
2022/01/22 08:50:23;;;;;;;;;;;-1.90;78.40;;;;;;5026433;28;89765;-43
2022/01/22 08:52:49;;;;;;;;;;;-1.80;78.30;;;;;;5025985;28;89662;-42
2022/01/22 08:55:14;;;;;;;;;;;-1.80;78.20;;;;;;5026389;28;86720;-42
2022/01/22 08:57:40;;;;;;;;;;;-1.90;78.20;;;;;;5026197;28;87897;-43
2022/01/22 09:00:06;;;;;;;;;;;-1.90;78.20;;;;;;5026045;28;89616;-43
2022/01/22 09:02:34;;;;;;;;;;;-1.90;78.30;;;;;;5058768;27;87048;-43
2022/01/22 09:05:00;;;;;;;;;;;-1.80;78.30;;;;;;5026748;28;88746;-43
2022/01/22 09:07:25;;;;;;;;;;;-1.90;78.50;;;;;;5028713;28;89175;-43
2022/01/22 09:09:52;;;;;;;;;;;-1.90;78.30;;;;;;5026192;28;89128;-43
2022/01/22 09:12:18;;;;;;;;;;;-1.80;78.40;;;;;;5024947;28;90440;-43
2022/01/22 09:14:44;;;;;;;;;;;-1.90;78.30;;;;;;5025988;28;86887;-43
2022/01/22 09:17:10;;;;;;;;;;;-1.90;78.50;;;;;;5026001;28;88729;-43
2022/01/22 09:19:36;;;;;;;;;;;-1.90;78.40;;;;;;5025730;28;89493;-43
2022/01/22 09:22:03;;;;;;;;;;;-1.90;78.60;;;;;;5025859;28;87165;-43
2022/01/22 09:24:28;;;;;;;;;;;-1.90;78.70;;;;;;5025904;28;87941;-43
2022/01/22 09:26:57;;;;;;;;;;;-1.90;78.60;;;;;;5025315;28;88619;-43
2022/01/22 09:29:23;;;;;;;;;;;-1.90;78.70;;;;;;5029234;28;86423;-42
2022/01/22 09:31:49;;;;;;;;;;;-1.90;78.70;;;;;;5025442;28;89656;-42
2022/01/22 09:34:15;;;;;;;;;;;-1.90;78.70;;;;;;5025746;28;87127;-43
2022/01/22 09:36:40;;;;;;;;;;;-1.90;78.80;;;;;;5025244;28;89161;-42
2022/01/22 09:39:06;;;;;;;;;;;-1.90;78.50;;;;;;5025146;28;89159;-43
2022/01/22 09:41:32;;;;;;;;;;;-1.90;78.50;;;;;;5025116;28;87174;-42
2022/01/22 09:43:57;;;;;;;;;;;-2.00;78.80;;;;;;5025839;28;89507;-42
2022/01/22 09:46:28;;;;;;;;;;;-2.00;78.80;;;;;;5025054;28;88350;-42
2022/01/22 09:48:54;;;;;;;;;;;-2.00;78.80;;;;;;5025599;28;87147;-42
2022/01/22 09:51:19;;;;;;;;;;;-2.00;78.80;;;;;;5028206;28;87909;-42
2022/01/22 09:53:45;;;;;;;;;;;-2.00;78.80;;;;;;5026043;28;86371;-42
2022/01/22 09:56:12;;;;;;;;;;;-2.00;79.00;;;;;;5025432;28;87965;-42
2022/01/22 09:58:38;;;;;;;;;;;-2.00;78.90;;;;;;5024960;28;89134;-42
2022/01/22 10:01:22;;;;;;;;;;;-2.00;79.00;;;;;;5024537;28;88077;-42
2022/01/22 10:03:48;;;;;;;;;;;-2.00;79.00;;;;;;5025408;28;88609;-42
2022/01/22 10:06:15;;;;;;;;;;;-2.00;78.90;;;;;;5024930;28;89236;-42
2022/01/22 10:08:40;;;;;;;;;;;-2.00;78.80;;;;;;5025199;28;87008;-42
2022/01/22 10:11:15;;;;;;;;;;;-2.00;78.80;;;;;;5025225;28;88802;-42
2022/01/22 10:13:51;;;;;;;;;;;-1.90;78.80;;;;;;5027684;28;89474;-42
2022/01/22 10:16:21;;;;;;;;;;;-1.90;78.70;;;;;;5025168;28;88669;-42
2022/01/22 10:19:06;;;;;;;;;;;-2.00;78.70;;;;;;5025314;28;89091;-43
2022/01/22 10:21:32;;;;;;;;;;;-1.90;78.80;;;;;;5025203;28;87024;-42
2022/01/22 10:24:17;;;;;;;;;;;-1.90;78.80;;;;;;5024998;28;89195;-42
2022/01/22 10:26:43;;;;;;;;;;;-1.90;78.70;;;;;;5023915;27;90426;-43
2022/01/22 10:29:09;;;;;;;;;;;-2.00;78.80;;;;;;5024846;28;87127;-42
2022/01/22 10:31:41;;;;;;;;;;;-1.90;78.80;;;;;;5024978;28;88248;-43
2022/01/22 10:34:07;;;;;;;;;;;-1.90;78.80;;;;;;5023174;28;90986;-42
2022/01/22 10:36:33;;;;;;;;;;;-1.90;78.70;;;;;;5027781;28;87057;-42
2022/01/22 10:38:59;;;;;;;;;;;-1.90;78.70;;;;;;5024410;28;89415;-42
2022/01/22 10:41:34;;;;;;;;;;;-1.90;78.70;;;;;;5024726;28;86755;-43
2022/01/22 10:44:01;;;;;;;;;;;-1.80;78.50;;;;;;5025344;28;89252;-43
2022/01/22 10:49:24;;;;;;;;;;;-1.80;78.40;;;;;;5022013;28;86915;-43
2022/01/22 10:51:50;;;;;;;;;;;-1.80;78.40;;;;;;5024204;28;88845;-43
2022/01/22 10:54:16;;;;;;;;;;;-1.80;78.50;;;;;;5024185;28;89548;-42
2022/01/22 10:56:42;;;;;;;;;;;-1.80;78.70;;;;;;5027537;28;87255;-43
2022/01/22 10:59:11;;;;;;;;;;;-1.90;78.50;;;;;;5023834;28;89418;-43
2022/01/22 11:01:43;;;;;;;;;;;-1.80;78.60;;;;;;5024345;28;87050;-43
2022/01/22 11:04:10;;;;;;;;;;;-1.80;78.60;;;;;;5024471;28;88705;-43
2022/01/22 11:06:37;;;;;;;;;;;-1.90;78.70;;;;;;5024146;28;89622;-43
2022/01/22 11:09:03;;;;;;;;;;;-1.80;78.70;;;;;;5024686;28;86373;-43
2022/01/22 11:11:30;;;;;;;;;;;-1.80;78.70;;;;;;5024038;28;88523;-43
2022/01/22 11:13:56;;;;;;;;;;;-1.90;78.70;;;;;;5023885;28;89367;-43
2022/01/22 11:16:21;;;;;;;;;;;-1.90;78.90;;;;;;5023584;28;88109;-42
2022/01/22 11:18:49;;;;;;;;;;;-1.90;78.90;;;;;;5026886;28;88115;-43
2022/01/22 11:21:15;;;;;;;;;;;-1.90;79.00;;;;;;5023983;28;87255;-42
2022/01/22 11:23:41;;;;;;;;;;;-1.90;79.00;;;;;;5024039;28;88748;-43
2022/01/22 11:26:08;;;;;;;;;;;-1.90;79.00;;;;;;5023695;28;89486;-43
2022/01/22 11:28:34;;;;;;;;;;;-1.90;79.10;;;;;;5024258;28;87151;-43
2022/01/22 11:31:01;;;;;;;;;;;-1.90;79.10;;;;;;5023999;28;88835;-43
2022/01/22 11:33:27;;;;;;;;;;;-1.90;79.80;;;;;;5023981;28;88193;-42
2022/01/22 11:36:04;;;;;;;;;;;-1.90;79.30;;;;;;5023811;28;87160;-43
2022/01/22 11:38:33;;;;;;;;;;;-1.90;79.30;;;;;;5023906;28;89267;-43
2022/01/22 11:41:04;;;;;;;;;;;-1.90;79.40;;;;;;5025201;28;90851;-43
2022/01/22 11:43:50;;;;;;;;;;;-1.90;79.40;;;;;;5023891;28;89694;-42
2022/01/22 11:46:20;;;;;;;;;;;-1.90;79.40;;;;;;5023294;28;89670;-42
2022/01/22 11:49:05;;;;;;;;;;;-1.90;79.50;;;;;;5023419;28;88276;-43
2022/01/22 11:51:31;;;;;;;;;;;-1.90;79.50;;;;;;5023544;27;88796;-43
2022/01/22 11:53:57;;;;;;;;;;;-1.90;79.60;;;;;;5023212;28;89457;-43
2022/01/22 11:56:27;;;;;;;;;;;-1.90;79.50;;;;;;5023514;28;87204;-43
2022/01/22 11:58:56;;;;;;;;;;;-1.90;79.60;;;;;;5023919;28;89165;-43
2022/01/22 12:01:40;;;;;;;;;;;-1.90;79.50;;;;;;5021987;28;89607;-42
2022/01/22 12:04:06;;;;;;;;;;;-1.90;79.60;;;;;;5026334;28;86941;-43
2022/01/22 12:06:32;;;;;;;;;;;-1.90;79.60;;;;;;5022485;28;90637;-43
2022/01/22 12:09:05;;;;;;;;;;;-1.90;79.70;;;;;;5023301;28;87066;-43
2022/01/22 12:14:51;;;;;;;;;;;-1.90;79.70;;;;;;5023057;28;87270;-43
2022/01/22 12:17:39;;;;;;;;;;;-1.90;79.70;;;;;;5023488;28;87049;-43
2022/01/22 12:20:18;;;;;;;;;;;-1.90;79.70;;;;;;5023413;27;87470;-43
2022/01/22 12:22:43;;;;;;;;;;;-1.90;79.80;;;;;;5023035;28;87126;-43
2022/01/22 12:25:09;;;;;;;;;;;-1.90;79.80;;;;;;5023637;28;86430;-43
2022/01/22 12:27:41;;;;;;;;;;;-1.90;79.80;;;;;;5025754;28;88110;-43
2022/01/22 12:30:07;;;;;;;;;;;-1.90;79.70;;;;;;5023161;28;87171;-42
2022/01/22 12:32:43;;;;;;;;;;;-1.90;79.60;;;;;;5022546;28;89397;-43
2022/01/22 12:35:10;;;;;;;;;;;-1.90;79.70;;;;;;5023072;28;87290;-43
2022/01/22 12:37:40;;;;;;;;;;;-1.80;79.60;;;;;;5023169;28;87142;-42
2022/01/22 12:40:06;;;;;;;;;;;-1.90;79.70;;;;;;5023025;28;88874;-43
2022/01/22 12:42:51;;;;;;;;;;;-1.90;79.80;;;;;;5022468;28;89765;-43
2022/01/22 12:45:17;;;;;;;;;;;-1.80;79.60;;;;;;5023212;28;87000;-42
2022/01/22 12:47:47;;;;;;;;;;;-1.80;79.40;;;;;;5022673;28;89371;-42
2022/01/22 12:50:13;;;;;;;;;;;-1.70;79.30;;;;;;5025836;28;88738;-42
2022/01/22 12:52:41;;;;;;;;;;;-1.60;79.30;;;;;;5023021;28;87390;-43
2022/01/22 12:55:27;;;;;;;;;;;-1.60;78.70;;;;;;5022344;28;89774;-43
2022/01/22 12:57:53;;;;;;;;;;;-1.70;78.80;;;;;;5022349;28;87906;-43
2022/01/22 13:00:20;;;;;;;;;;;-1.60;79.10;;;;;;5022646;28;89920;-43
2022/01/22 13:02:57;;;;;;;;;;;-1.60;78.60;;;;;;5022466;28;89586;-42
2022/01/22 13:05:25;;;;;;;;;;;-1.60;79.20;;;;;;5022880;28;86965;-43
2022/01/22 13:07:55;;;;;;;;;;;-1.60;78.50;;;;;;5022673;28;88197;-43
2022/01/22 13:10:23;;;;;;;;;;;-1.50;79.20;;;;;;5025356;28;88502;-43
2022/01/22 13:12:49;;;;;;;;;;;-1.50;78.80;;;;;;5023758;28;89295;-43
2022/01/22 13:15:15;;;;;;;;;;;-1.50;79.20;;;;;;5026370;28;88711;-42
2022/01/22 13:17:42;;;;;;;;;;;-1.60;79.20;;;;;;5025948;28;87021;-42
2022/01/22 13:20:08;;;;;;;;;;;-1.60;78.70;;;;;;5025944;28;88757;-42
2022/01/22 13:22:34;;;;;;;;;;;-1.60;78.70;;;;;;5024942;28;89130;-43
2022/01/22 13:25:08;;;;;;;;;;;-1.60;78.80;;;;;;5025893;28;87125;-43
2022/01/22 13:27:37;;;;;;;;;;;-1.60;79.00;;;;;;5025604;28;87975;-43
2022/01/22 13:30:04;;;;;;;;;;;-1.60;79.20;;;;;;5025536;28;89580;-43
2022/01/22 13:32:54;;;;;;;;;;;-1.60;78.80;;;;;;5028552;28;87094;-43
2022/01/22 13:48:29;;;;;;;;;;;-1.50;79.20;;;;;;5012954;28;88177;-43
2022/01/22 13:50:55;;;;;;;;;;;-1.50;79.50;;;;;;5025393;28;88665;-43
2022/01/22 13:53:20;;;;;;;;;;;-1.50;79.00;;;;;;5025404;28;87156;-43
2022/01/22 13:55:56;;;;;;;;;;;-1.50;79.50;;;;;;5027966;28;89318;-43
2022/01/22 13:58:21;;;;;;;;;;;-1.60;79.20;;;;;;5025460;28;86862;-43
2022/01/22 14:00:47;;;;;;;;;;;-1.50;79.40;;;;;;5025248;28;89091;-43
2022/01/22 14:05:51;;;;;;;;;;;-1.50;78.70;;;;;;5024188;28;86145;-43
2022/01/22 14:08:28;;;;;;;;;;;-1.40;79.00;;;;;;5025049;28;88411;-43
2022/01/22 14:11:01;;;;;;;;;;;-1.50;78.90;;;;;;5025331;28;89547;-43
2022/01/22 14:13:26;;;;;;;;;;;-1.40;79.20;;;;;;5024539;28;87808;-42
2022/01/22 14:15:52;;;;;;;;;;;-1.50;79.20;;;;;;5025448;28;89837;-43
2022/01/22 14:18:23;;;;;;;;;;;-1.50;79.10;;;;;;5027487;28;89607;-43
2022/01/22 14:20:51;;;;;;;;;;;-1.50;79.40;;;;;;5025408;28;87664;-43
2022/01/22 14:23:22;;;;;;;;;;;-1.50;79.90;;;;;;5024215;28;89863;-42
2022/01/22 14:26:04;;;;;;;;;;;-1.50;79.30;;;;;;5024357;28;87237;-43
2022/01/22 14:28:36;;;;;;;;;;;-1.50;79.30;;;;;;5025132;28;87445;-43
2022/01/22 14:31:02;;;;;;;;;;;-1.50;79.80;;;;;;5025015;28;88427;-43
2022/01/22 14:33:40;;;;;;;;;;;-1.50;79.50;;;;;;5024756;28;87159;-42
2022/01/22 14:36:05;;;;;;;;;;;-1.50;79.60;;;;;;5024887;28;88704;-43
2022/01/22 14:38:42;;;;;;;;;;;-1.50;79.60;;;;;;5023431;28;90994;-43
2022/01/22 14:44:08;;;;;;;;;;;-1.50;79.20;;;;;;5024843;28;87092;-43
2022/01/22 14:46:40;;;;;;;;;;;-1.50;79.50;;;;;;5024901;28;86887;-42
2022/01/22 14:49:05;;;;;;;;;;;-1.50;79.40;;;;;;5024583;28;89248;-43
2022/01/22 14:51:31;;;;;;;;;;;-1.50;79.40;;;;;;5024047;28;89651;-42
2022/01/22 14:53:56;;;;;;;;;;;-1.50;79.50;;;;;;5024468;28;87230;-42
2022/01/22 14:56:22;;;;;;;;;;;-1.50;79.60;;;;;;5024910;28;88948;-43
2022/01/22 14:58:47;;;;;;;;;;;-1.50;79.50;;;;;;5024227;28;89528;-43
2022/01/22 15:01:13;;;;;;;;;;;-1.40;79.60;;;;;;5024404;28;87198;-43
2022/01/22 15:03:38;;;;;;;;;;;-1.50;79.50;;;;;;5026419;28;88734;-43
2022/01/22 15:06:04;;;;;;;;;;;-1.40;79.60;;;;;;5024367;28;86846;-42
2022/01/22 15:08:29;;;;;;;;;;;-1.50;79.60;;;;;;5024363;28;89010;-42
2022/01/22 15:10:55;;;;;;;;;;;-1.50;79.70;;;;;;5023934;28;89366;-43
2022/01/22 15:13:22;;;;;;;;;;;-1.50;79.60;;;;;;5024288;28;87191;-43
2022/01/22 15:15:48;;;;;;;;;;;-1.50;79.70;;;;;;5024312;28;88523;-42
2022/01/22 15:18:27;;;;;;;;;;;-1.50;79.70;;;;;;5023635;28;89514;-42
2022/01/22 15:20:53;;;;;;;;;;;-1.50;79.50;;;;;;5025005;28;86177;-43
2022/01/22 15:23:18;;;;;;;;;;;-1.50;79.70;;;;;;5026714;28;88046;-43
2022/01/22 15:25:44;;;;;;;;;;;-1.50;79.60;;;;;;5024063;28;87085;-42
2022/01/22 15:28:10;;;;;;;;;;;-1.50;79.50;;;;;;5023425;28;88790;-42
2022/01/22 15:30:36;;;;;;;;;;;-1.40;79.60;;;;;;5023592;28;89618;-43
2022/01/22 15:33:19;;;;;;;;;;;-1.40;79.50;;;;;;5023940;28;87165;-42
2022/01/22 15:35:44;;;;;;;;;;;-1.50;79.80;;;;;;5023780;28;88028;-42
2022/01/22 15:38:10;;;;;;;;;;;-1.40;79.50;;;;;;5023566;28;89323;-43
2022/01/22 15:40:36;;;;;;;;;;;-1.40;79.50;;;;;;5023389;28;87134;-43
2022/01/22 15:43:02;;;;;;;;;;;-1.40;79.60;;;;;;5023969;28;88941;-43
2022/01/22 15:45:29;;;;;;;;;;;-1.40;79.70;;;;;;5026366;28;88958;-42
2022/01/22 15:47:55;;;;;;;;;;;-1.50;79.70;;;;;;5023621;28;88499;-43
2022/01/22 15:50:22;;;;;;;;;;;-1.40;79.50;;;;;;5023318;28;89252;-42
2022/01/22 15:52:47;;;;;;;;;;;-1.50;79.60;;;;;;5022997;28;87671;-42
2022/01/22 15:55:13;;;;;;;;;;;-1.50;79.70;;;;;;5023504;28;90344;-43
2022/01/22 15:57:40;;;;;;;;;;;-1.50;79.70;;;;;;5023261;28;88496;-42
2022/01/22 16:00:06;;;;;;;;;;;-1.50;79.70;;;;;;5023431;28;87244;-43
2022/01/22 16:02:32;;;;;;;;;;;-1.50;79.70;;;;;;5023544;28;88765;-42
2022/01/22 16:04:59;;;;;;;;;;;-1.50;79.90;;;;;;5023267;28;89331;-43
2022/01/22 16:07:25;;;;;;;;;;;-1.50;79.90;;;;;;5026153;28;87144;-42
2022/01/22 16:09:51;;;;;;;;;;;-1.40;79.60;;;;;;5023673;28;88721;-42
2022/01/22 16:12:20;;;;;;;;;;;-1.40;79.60;;;;;;5023235;28;87042;-42
2022/01/22 16:14:46;;;;;;;;;;;-1.40;79.50;;;;;;5022951;28;88992;-42
2022/01/22 16:17:19;;;;;;;;;;;-1.40;79.60;;;;;;5022336;28;90537;-43
2022/01/22 16:19:45;;;;;;;;;;;-1.50;79.80;;;;;;5023558;28;87182;-43